sensor_id;sensor_type;location;lat;lon;timestamp;P1;durP1;ratioP1;P2;durP2;ratioP2
3561;SDS011;1795;52.074;4.754;2023-02-19T00:01:46;19.67;;;6.30;;
3561;SDS011;1795;52.074;4.754;2023-02-19T00:04:15;16.70;;;6.10;;
3561;SDS011;1795;52.074;4.754;2023-02-19T00:06:46;19.13;;;6.07;;
3561;SDS011;1795;52.074;4.754;2023-02-19T00:09:16;19.35;;;6.55;;
3561;SDS011;1795;52.074;4.754;2023-02-19T00:11:45;17.40;;;6.40;;
3561;SDS011;1795;52.074;4.754;2023-02-19T00:14:13;22.90;;;7.00;;
3561;SDS011;1795;52.074;4.754;2023-02-19T00:16:42;25.55;;;6.80;;
3561;SDS011;1795;52.074;4.754;2023-02-19T00:19:11;25.37;;;6.30;;
3561;SDS011;1795;52.074;4.754;2023-02-19T00:21:40;19.47;;;6.40;;
3561;SDS011;1795;52.074;4.754;2023-02-19T00:24:11;22.33;;;5.95;;
3561;SDS011;1795;52.074;4.754;2023-02-19T00:26:40;19.40;;;5.10;;
3561;SDS011;1795;52.074;4.754;2023-02-19T00:29:11;17.13;;;4.80;;
3561;SDS011;1795;52.074;4.754;2023-02-19T00:31:40;15.55;;;5.10;;
3561;SDS011;1795;52.074;4.754;2023-02-19T00:34:09;19.10;;;5.25;;
3561;SDS011;1795;52.074;4.754;2023-02-19T00:36:38;13.82;;;5.65;;
3561;SDS011;1795;52.074;4.754;2023-02-19T00:39:07;13.55;;;5.40;;
3561;SDS011;1795;52.074;4.754;2023-02-19T00:41:40;19.60;;;5.70;;
3561;SDS011;1795;52.074;4.754;2023-02-19T00:44:09;15.30;;;5.30;;
3561;SDS011;1795;52.074;4.754;2023-02-19T00:46:38;20.75;;;5.50;;
3561;SDS011;1795;52.074;4.754;2023-02-19T00:49:07;14.70;;;5.00;;
3561;SDS011;1795;52.074;4.754;2023-02-19T00:51:39;12.93;;;4.43;;
3561;SDS011;1795;52.074;4.754;2023-02-19T00:54:08;15.93;;;4.25;;
3561;SDS011;1795;52.074;4.754;2023-02-19T00:56:38;17.83;;;4.68;;
3561;SDS011;1795;52.074;4.754;2023-02-19T00:59:06;16.08;;;4.18;;
3561;SDS011;1795;52.074;4.754;2023-02-19T01:01:34;16.73;;;5.20;;
3561;SDS011;1795;52.074;4.754;2023-02-19T01:04:03;12.93;;;4.93;;
3561;SDS011;1795;52.074;4.754;2023-02-19T01:06:32;22.17;;;5.43;;
3561;SDS011;1795;52.074;4.754;2023-02-19T01:09:01;15.00;;;4.65;;
3561;SDS011;1795;52.074;4.754;2023-02-19T01:11:31;14.70;;;4.70;;
3561;SDS011;1795;52.074;4.754;2023-02-19T01:13:59;18.98;;;4.60;;
3561;SDS011;1795;52.074;4.754;2023-02-19T01:16:28;19.42;;;4.13;;
3561;SDS011;1795;52.074;4.754;2023-02-19T01:18:57;13.10;;;4.38;;
3561;SDS011;1795;52.074;4.754;2023-02-19T01:21:26;20.87;;;5.27;;
3561;SDS011;1795;52.074;4.754;2023-02-19T01:23:56;13.77;;;4.65;;
3561;SDS011;1795;52.074;4.754;2023-02-19T01:26:25;12.55;;;4.75;;
3561;SDS011;1795;52.074;4.754;2023-02-19T01:28:56;19.55;;;4.53;;
3561;SDS011;1795;52.074;4.754;2023-02-19T01:31:25;15.13;;;5.18;;
3561;SDS011;1795;52.074;4.754;2023-02-19T01:33:54;14.10;;;5.45;;
3561;SDS011;1795;52.074;4.754;2023-02-19T01:36:24;17.70;;;4.68;;
3561;SDS011;1795;52.074;4.754;2023-02-19T01:38:52;20.27;;;4.88;;
3561;SDS011;1795;52.074;4.754;2023-02-19T01:41:21;17.53;;;4.47;;
3561;SDS011;1795;52.074;4.754;2023-02-19T01:43:55;16.80;;;4.78;;
3561;SDS011;1795;52.074;4.754;2023-02-19T01:46:27;18.23;;;4.90;;
3561;SDS011;1795;52.074;4.754;2023-02-19T01:48:56;9.38;;;4.50;;
3561;SDS011;1795;52.074;4.754;2023-02-19T01:51:28;15.32;;;4.60;;
3561;SDS011;1795;52.074;4.754;2023-02-19T01:54:00;13.25;;;4.30;;
3561;SDS011;1795;52.074;4.754;2023-02-19T01:56:31;14.32;;;4.60;;
3561;SDS011;1795;52.074;4.754;2023-02-19T01:59:05;13.20;;;4.47;;
3561;SDS011;1795;52.074;4.754;2023-02-19T02:01:33;16.48;;;5.70;;
3561;SDS011;1795;52.074;4.754;2023-02-19T02:04:04;12.90;;;5.28;;
3561;SDS011;1795;52.074;4.754;2023-02-19T02:06:33;18.77;;;4.60;;
3561;SDS011;1795;52.074;4.754;2023-02-19T02:09:05;18.63;;;5.10;;
3561;SDS011;1795;52.074;4.754;2023-02-19T02:11:51;20.52;;;4.78;;
3561;SDS011;1795;52.074;4.754;2023-02-19T02:14:21;15.07;;;4.38;;
3561;SDS011;1795;52.074;4.754;2023-02-19T02:16:54;14.30;;;4.50;;
3561;SDS011;1795;52.074;4.754;2023-02-19T02:19:31;15.70;;;4.90;;
3561;SDS011;1795;52.074;4.754;2023-02-19T02:22:21;20.13;;;5.10;;
3561;SDS011;1795;52.074;4.754;2023-02-19T02:24:59;18.90;;;5.57;;
3561;SDS011;1795;52.074;4.754;2023-02-19T02:27:42;17.88;;;5.75;;
3561;SDS011;1795;52.074;4.754;2023-02-19T02:30:29;21.67;;;5.20;;
3561;SDS011;1795;52.074;4.754;2023-02-19T02:33:04;17.92;;;4.80;;
3561;SDS011;1795;52.074;4.754;2023-02-19T02:35:41;19.70;;;4.90;;
3561;SDS011;1795;52.074;4.754;2023-02-19T02:38:13;17.90;;;5.13;;
3561;SDS011;1795;52.074;4.754;2023-02-19T02:40:46;17.83;;;5.15;;
3561;SDS011;1795;52.074;4.754;2023-02-19T02:43:14;16.27;;;5.20;;
3561;SDS011;1795;52.074;4.754;2023-02-19T02:45:44;17.35;;;5.10;;
3561;SDS011;1795;52.074;4.754;2023-02-19T02:48:14;13.50;;;5.35;;
3561;SDS011;1795;52.074;4.754;2023-02-19T02:50:49;24.50;;;6.65;;
3561;SDS011;1795;52.074;4.754;2023-02-19T02:53:22;17.42;;;6.00;;
3561;SDS011;1795;52.074;4.754;2023-02-19T02:56:11;14.38;;;5.72;;
3561;SDS011;1795;52.074;4.754;2023-02-19T02:58:41;15.07;;;5.22;;
3561;SDS011;1795;52.074;4.754;2023-02-19T03:01:13;14.85;;;4.38;;
3561;SDS011;1795;52.074;4.754;2023-02-19T03:04:03;14.95;;;4.53;;
3561;SDS011;1795;52.074;4.754;2023-02-19T03:06:34;15.73;;;5.35;;
3561;SDS011;1795;52.074;4.754;2023-02-19T03:09:06;12.60;;;4.65;;
3561;SDS011;1795;52.074;4.754;2023-02-19T03:11:38;17.42;;;5.30;;
3561;SDS011;1795;52.074;4.754;2023-02-19T03:14:30;16.40;;;4.93;;
3561;SDS011;1795;52.074;4.754;2023-02-19T03:17:23;17.08;;;5.55;;
3561;SDS011;1795;52.074;4.754;2023-02-19T03:20:14;17.55;;;5.40;;
3561;SDS011;1795;52.074;4.754;2023-02-19T03:22:45;12.50;;;4.37;;
3561;SDS011;1795;52.074;4.754;2023-02-19T03:25:19;15.27;;;4.90;;
3561;SDS011;1795;52.074;4.754;2023-02-19T03:28:08;13.38;;;4.70;;
3561;SDS011;1795;52.074;4.754;2023-02-19T03:30:38;17.08;;;4.85;;
3561;SDS011;1795;52.074;4.754;2023-02-19T03:33:12;14.13;;;4.75;;
3561;SDS011;1795;52.074;4.754;2023-02-19T03:35:42;19.27;;;4.50;;
3561;SDS011;1795;52.074;4.754;2023-02-19T03:38:14;14.70;;;4.38;;
3561;SDS011;1795;52.074;4.754;2023-02-19T03:40:50;17.00;;;5.23;;
3561;SDS011;1795;52.074;4.754;2023-02-19T03:43:23;11.45;;;5.40;;
3561;SDS011;1795;52.074;4.754;2023-02-19T03:46:02;17.23;;;4.85;;
3561;SDS011;1795;52.074;4.754;2023-02-19T03:48:37;12.40;;;4.53;;
3561;SDS011;1795;52.074;4.754;2023-02-19T03:51:17;18.13;;;4.90;;
3561;SDS011;1795;52.074;4.754;2023-02-19T03:53:54;14.60;;;4.65;;
3561;SDS011;1795;52.074;4.754;2023-02-19T03:56:32;19.40;;;4.80;;
3561;SDS011;1795;52.074;4.754;2023-02-19T03:59:04;16.60;;;5.20;;
3561;SDS011;1795;52.074;4.754;2023-02-19T04:01:38;13.32;;;4.53;;
3561;SDS011;1795;52.074;4.754;2023-02-19T04:04:14;19.95;;;5.28;;
3561;SDS011;1795;52.074;4.754;2023-02-19T04:06:45;23.02;;;6.03;;
3561;SDS011;1795;52.074;4.754;2023-02-19T04:09:17;20.40;;;5.90;;
3561;SDS011;1795;52.074;4.754;2023-02-19T04:11:47;11.80;;;5.45;;
3561;SDS011;1795;52.074;4.754;2023-02-19T04:14:18;22.25;;;5.10;;
3561;SDS011;1795;52.074;4.754;2023-02-19T04:16:52;19.25;;;4.25;;
3561;SDS011;1795;52.074;4.754;2023-02-19T04:19:27;20.52;;;5.10;;
3561;SDS011;1795;52.074;4.754;2023-02-19T04:21:59;20.52;;;4.60;;
3561;SDS011;1795;52.074;4.754;2023-02-19T04:24:30;18.40;;;4.60;;
3561;SDS011;1795;52.074;4.754;2023-02-19T04:27:03;22.70;;;5.07;;
3561;SDS011;1795;52.074;4.754;2023-02-19T04:29:32;18.25;;;4.38;;
3561;SDS011;1795;52.074;4.754;2023-02-19T04:32:03;18.98;;;5.10;;
3561;SDS011;1795;52.074;4.754;2023-02-19T04:34:32;18.45;;;5.10;;
3561;SDS011;1795;52.074;4.754;2023-02-19T04:37:00;14.30;;;4.28;;
3561;SDS011;1795;52.074;4.754;2023-02-19T04:39:28;11.43;;;4.15;;
3561;SDS011;1795;52.074;4.754;2023-02-19T04:41:56;13.15;;;4.15;;
3561;SDS011;1795;52.074;4.754;2023-02-19T04:44:25;16.27;;;4.65;;
3561;SDS011;1795;52.074;4.754;2023-02-19T04:46:55;14.88;;;4.50;;
3561;SDS011;1795;52.074;4.754;2023-02-19T04:49:22;14.68;;;3.90;;
3561;SDS011;1795;52.074;4.754;2023-02-19T04:51:53;19.35;;;4.18;;
3561;SDS011;1795;52.074;4.754;2023-02-19T04:54:22;17.30;;;4.18;;
3561;SDS011;1795;52.074;4.754;2023-02-19T04:56:52;14.60;;;4.47;;
3561;SDS011;1795;52.074;4.754;2023-02-19T04:59:20;22.38;;;5.13;;
3561;SDS011;1795;52.074;4.754;2023-02-19T05:01:48;15.43;;;4.43;;
3561;SDS011;1795;52.074;4.754;2023-02-19T05:04:16;22.10;;;4.68;;
3561;SDS011;1795;52.074;4.754;2023-02-19T05:06:44;15.60;;;4.05;;
3561;SDS011;1795;52.074;4.754;2023-02-19T05:09:13;16.35;;;4.60;;
3561;SDS011;1795;52.074;4.754;2023-02-19T05:11:41;13.17;;;4.37;;
3561;SDS011;1795;52.074;4.754;2023-02-19T05:14:09;18.83;;;5.22;;
3561;SDS011;1795;52.074;4.754;2023-02-19T05:16:37;15.18;;;4.43;;
3561;SDS011;1795;52.074;4.754;2023-02-19T05:19:05;19.10;;;4.93;;
3561;SDS011;1795;52.074;4.754;2023-02-19T05:21:33;20.50;;;6.22;;
3561;SDS011;1795;52.074;4.754;2023-02-19T05:24:01;17.92;;;5.60;;
3561;SDS011;1795;52.074;4.754;2023-02-19T05:26:31;17.90;;;5.85;;
3561;SDS011;1795;52.074;4.754;2023-02-19T05:28:59;18.67;;;5.25;;
3561;SDS011;1795;52.074;4.754;2023-02-19T05:31:27;11.50;;;4.47;;
3561;SDS011;1795;52.074;4.754;2023-02-19T05:33:55;22.30;;;5.32;;
3561;SDS011;1795;52.074;4.754;2023-02-19T05:36:23;19.05;;;4.78;;
3561;SDS011;1795;52.074;4.754;2023-02-19T05:38:52;14.77;;;4.60;;
3561;SDS011;1795;52.074;4.754;2023-02-19T05:41:21;15.90;;;4.10;;
3561;SDS011;1795;52.074;4.754;2023-02-19T05:43:52;16.70;;;5.00;;
3561;SDS011;1795;52.074;4.754;2023-02-19T05:46:22;15.82;;;4.78;;
3561;SDS011;1795;52.074;4.754;2023-02-19T05:48:52;18.33;;;5.30;;
3561;SDS011;1795;52.074;4.754;2023-02-19T05:51:21;16.95;;;5.10;;
3561;SDS011;1795;52.074;4.754;2023-02-19T05:53:53;15.57;;;5.15;;
3561;SDS011;1795;52.074;4.754;2023-02-19T05:56:26;12.55;;;4.45;;
3561;SDS011;1795;52.074;4.754;2023-02-19T05:59:00;16.23;;;4.80;;
3561;SDS011;1795;52.074;4.754;2023-02-19T06:01:30;14.20;;;4.15;;
3561;SDS011;1795;52.074;4.754;2023-02-19T06:03:58;17.05;;;5.60;;
3561;SDS011;1795;52.074;4.754;2023-02-19T06:06:26;15.48;;;4.78;;
3561;SDS011;1795;52.074;4.754;2023-02-19T06:08:54;9.85;;;5.10;;
3561;SDS011;1795;52.074;4.754;2023-02-19T06:11:22;13.20;;;4.97;;
3561;SDS011;1795;52.074;4.754;2023-02-19T06:13:50;11.30;;;5.55;;
3561;SDS011;1795;52.074;4.754;2023-02-19T06:16:20;11.48;;;5.13;;
3561;SDS011;1795;52.074;4.754;2023-02-19T06:18:48;14.45;;;4.95;;
3561;SDS011;1795;52.074;4.754;2023-02-19T06:21:17;14.00;;;5.55;;
3561;SDS011;1795;52.074;4.754;2023-02-19T06:23:45;16.50;;;5.30;;
3561;SDS011;1795;52.074;4.754;2023-02-19T06:26:14;11.53;;;5.80;;
3561;SDS011;1795;52.074;4.754;2023-02-19T06:28:44;13.98;;;5.32;;
3561;SDS011;1795;52.074;4.754;2023-02-19T06:31:13;14.20;;;5.30;;
3561;SDS011;1795;52.074;4.754;2023-02-19T06:33:44;17.83;;;4.72;;
3561;SDS011;1795;52.074;4.754;2023-02-19T06:36:13;17.67;;;6.05;;
3561;SDS011;1795;52.074;4.754;2023-02-19T06:38:42;14.50;;;5.80;;
3561;SDS011;1795;52.074;4.754;2023-02-19T06:41:11;17.40;;;6.05;;
3561;SDS011;1795;52.074;4.754;2023-02-19T06:43:40;15.38;;;5.00;;
3561;SDS011;1795;52.074;4.754;2023-02-19T06:46:09;12.85;;;4.68;;
3561;SDS011;1795;52.074;4.754;2023-02-19T06:48:38;17.10;;;4.68;;
3561;SDS011;1795;52.074;4.754;2023-02-19T06:51:09;13.80;;;4.80;;
3561;SDS011;1795;52.074;4.754;2023-02-19T06:53:39;20.08;;;4.90;;
3561;SDS011;1795;52.074;4.754;2023-02-19T06:56:18;12.88;;;5.03;;
3561;SDS011;1795;52.074;4.754;2023-02-19T06:58:50;16.30;;;5.70;;
3561;SDS011;1795;52.074;4.754;2023-02-19T07:01:18;17.92;;;5.63;;
3561;SDS011;1795;52.074;4.754;2023-02-19T07:03:46;14.45;;;6.32;;
3561;SDS011;1795;52.074;4.754;2023-02-19T07:06:15;14.68;;;5.80;;
3561;SDS011;1795;52.074;4.754;2023-02-19T07:08:43;15.35;;;5.80;;
3561;SDS011;1795;52.074;4.754;2023-02-19T07:11:12;13.13;;;5.22;;
3561;SDS011;1795;52.074;4.754;2023-02-19T07:13:40;15.68;;;6.03;;
3561;SDS011;1795;52.074;4.754;2023-02-19T07:16:08;16.38;;;5.20;;
3561;SDS011;1795;52.074;4.754;2023-02-19T07:18:37;19.30;;;5.80;;
3561;SDS011;1795;52.074;4.754;2023-02-19T07:21:06;16.10;;;5.43;;
3561;SDS011;1795;52.074;4.754;2023-02-19T07:23:37;15.45;;;5.68;;
3561;SDS011;1795;52.074;4.754;2023-02-19T07:26:07;14.80;;;6.63;;
3561;SDS011;1795;52.074;4.754;2023-02-19T07:28:35;16.27;;;6.43;;
3561;SDS011;1795;52.074;4.754;2023-02-19T07:31:03;16.17;;;5.93;;
3561;SDS011;1795;52.074;4.754;2023-02-19T07:33:32;16.50;;;5.70;;
3561;SDS011;1795;52.074;4.754;2023-02-19T07:36:00;22.42;;;6.10;;
3561;SDS011;1795;52.074;4.754;2023-02-19T07:38:28;20.83;;;6.55;;
3561;SDS011;1795;52.074;4.754;2023-02-19T07:40:57;14.27;;;6.40;;
3561;SDS011;1795;52.074;4.754;2023-02-19T07:43:28;18.13;;;6.50;;
3561;SDS011;1795;52.074;4.754;2023-02-19T07:45:57;17.60;;;6.55;;
3561;SDS011;1795;52.074;4.754;2023-02-19T07:48:25;16.25;;;6.70;;
3561;SDS011;1795;52.074;4.754;2023-02-19T07:50:54;13.27;;;6.60;;
3561;SDS011;1795;52.074;4.754;2023-02-19T07:53:24;16.98;;;7.30;;
3561;SDS011;1795;52.074;4.754;2023-02-19T07:55:57;16.50;;;6.50;;
3561;SDS011;1795;52.074;4.754;2023-02-19T07:58:28;14.80;;;5.35;;
3561;SDS011;1795;52.074;4.754;2023-02-19T08:00:56;14.35;;;5.97;;
3561;SDS011;1795;52.074;4.754;2023-02-19T08:03:32;13.20;;;5.10;;
3561;SDS011;1795;52.074;4.754;2023-02-19T08:05:59;14.38;;;5.60;;
3561;SDS011;1795;52.074;4.754;2023-02-19T08:08:27;12.35;;;5.28;;
3561;SDS011;1795;52.074;4.754;2023-02-19T08:10:59;11.50;;;4.60;;
3561;SDS011;1795;52.074;4.754;2023-02-19T08:13:46;16.50;;;5.97;;
3561;SDS011;1795;52.074;4.754;2023-02-19T08:16:15;16.70;;;6.20;;
3561;SDS011;1795;52.074;4.754;2023-02-19T08:19:02;21.30;;;6.32;;
3561;SDS011;1795;52.074;4.754;2023-02-19T08:21:30;16.73;;;5.82;;
3561;SDS011;1795;52.074;4.754;2023-02-19T08:23:59;16.15;;;6.00;;
3561;SDS011;1795;52.074;4.754;2023-02-19T08:26:29;17.80;;;5.72;;
3561;SDS011;1795;52.074;4.754;2023-02-19T08:28:57;15.30;;;5.70;;
3561;SDS011;1795;52.074;4.754;2023-02-19T08:31:25;17.85;;;5.60;;
3561;SDS011;1795;52.074;4.754;2023-02-19T08:33:53;16.42;;;6.50;;
3561;SDS011;1795;52.074;4.754;2023-02-19T08:36:21;15.30;;;6.38;;
3561;SDS011;1795;52.074;4.754;2023-02-19T08:38:49;18.08;;;7.03;;
3561;SDS011;1795;52.074;4.754;2023-02-19T08:41:18;15.27;;;7.25;;
3561;SDS011;1795;52.074;4.754;2023-02-19T08:43:47;17.42;;;7.13;;
3561;SDS011;1795;52.074;4.754;2023-02-19T08:46:15;18.40;;;6.50;;
3561;SDS011;1795;52.074;4.754;2023-02-19T08:48:44;19.80;;;6.27;;
3561;SDS011;1795;52.074;4.754;2023-02-19T08:51:12;22.15;;;6.70;;
3561;SDS011;1795;52.074;4.754;2023-02-19T08:53:40;14.48;;;6.10;;
3561;SDS011;1795;52.074;4.754;2023-02-19T08:56:09;21.58;;;6.78;;
3561;SDS011;1795;52.074;4.754;2023-02-19T08:58:38;18.40;;;7.03;;
3561;SDS011;1795;52.074;4.754;2023-02-19T09:01:08;22.70;;;7.60;;
3561;SDS011;1795;52.074;4.754;2023-02-19T09:03:38;17.40;;;7.45;;
3561;SDS011;1795;52.074;4.754;2023-02-19T09:06:06;18.55;;;7.40;;
3561;SDS011;1795;52.074;4.754;2023-02-19T09:08:37;19.88;;;7.40;;
3561;SDS011;1795;52.074;4.754;2023-02-19T09:11:05;16.50;;;7.00;;
3561;SDS011;1795;52.074;4.754;2023-02-19T09:13:34;22.60;;;7.10;;
3561;SDS011;1795;52.074;4.754;2023-02-19T09:16:02;18.50;;;6.40;;
3561;SDS011;1795;52.074;4.754;2023-02-19T09:18:32;12.18;;;6.30;;
3561;SDS011;1795;52.074;4.754;2023-02-19T09:21:02;14.40;;;6.07;;
3561;SDS011;1795;52.074;4.754;2023-02-19T09:23:32;23.40;;;5.90;;
3561;SDS011;1795;52.074;4.754;2023-02-19T09:26:01;18.95;;;6.47;;
3561;SDS011;1795;52.074;4.754;2023-02-19T09:28:32;14.65;;;7.40;;
3561;SDS011;1795;52.074;4.754;2023-02-19T09:31:02;22.83;;;6.60;;
3561;SDS011;1795;52.074;4.754;2023-02-19T09:33:33;12.20;;;4.83;;
3561;SDS011;1795;52.074;4.754;2023-02-19T09:36:01;16.77;;;5.07;;
3561;SDS011;1795;52.074;4.754;2023-02-19T09:38:30;19.17;;;5.03;;
3561;SDS011;1795;52.074;4.754;2023-02-19T09:40:58;26.83;;;6.43;;
3561;SDS011;1795;52.074;4.754;2023-02-19T09:43:32;16.00;;;4.80;;
3561;SDS011;1795;52.074;4.754;2023-02-19T09:46:02;23.45;;;5.50;;
3561;SDS011;1795;52.074;4.754;2023-02-19T09:48:37;24.20;;;5.20;;
3561;SDS011;1795;52.074;4.754;2023-02-19T09:51:05;15.70;;;5.40;;
3561;SDS011;1795;52.074;4.754;2023-02-19T09:53:39;26.48;;;5.60;;
3561;SDS011;1795;52.074;4.754;2023-02-19T09:56:08;15.38;;;5.20;;
3561;SDS011;1795;52.074;4.754;2023-02-19T09:58:39;26.45;;;6.15;;
3561;SDS011;1795;52.074;4.754;2023-02-19T10:01:12;19.10;;;5.88;;
3561;SDS011;1795;52.074;4.754;2023-02-19T10:03:43;16.88;;;4.93;;
3561;SDS011;1795;52.074;4.754;2023-02-19T10:06:13;13.43;;;3.90;;
3561;SDS011;1795;52.074;4.754;2023-02-19T10:08:46;14.88;;;4.30;;
3561;SDS011;1795;52.074;4.754;2023-02-19T10:11:16;16.00;;;4.20;;
3561;SDS011;1795;52.074;4.754;2023-02-19T10:13:45;11.75;;;3.33;;
3561;SDS011;1795;52.074;4.754;2023-02-19T10:16:18;15.48;;;4.70;;
3561;SDS011;1795;52.074;4.754;2023-02-19T10:18:51;12.07;;;4.33;;
3561;SDS011;1795;52.074;4.754;2023-02-19T10:21:20;10.43;;;4.20;;
3561;SDS011;1795;52.074;4.754;2023-02-19T10:23:51;11.18;;;3.90;;
3561;SDS011;1795;52.074;4.754;2023-02-19T10:26:22;13.00;;;3.63;;
3561;SDS011;1795;52.074;4.754;2023-02-19T10:28:50;10.75;;;3.80;;
3561;SDS011;1795;52.074;4.754;2023-02-19T10:31:21;14.32;;;3.80;;
3561;SDS011;1795;52.074;4.754;2023-02-19T10:33:52;13.30;;;3.80;;
3561;SDS011;1795;52.074;4.754;2023-02-19T10:36:24;9.93;;;3.30;;
3561;SDS011;1795;52.074;4.754;2023-02-19T10:38:57;13.43;;;3.58;;
3561;SDS011;1795;52.074;4.754;2023-02-19T10:41:26;14.63;;;3.60;;
3561;SDS011;1795;52.074;4.754;2023-02-19T10:43:56;7.60;;;3.30;;
3561;SDS011;1795;52.074;4.754;2023-02-19T10:46:32;5.35;;;2.80;;
3561;SDS011;1795;52.074;4.754;2023-02-19T10:49:04;10.15;;;3.20;;
3561;SDS011;1795;52.074;4.754;2023-02-19T10:51:41;5.72;;;2.30;;
3561;SDS011;1795;52.074;4.754;2023-02-19T10:54:14;8.47;;;2.57;;
3561;SDS011;1795;52.074;4.754;2023-02-19T10:56:44;11.77;;;2.75;;
3561;SDS011;1795;52.074;4.754;2023-02-19T10:59:14;9.65;;;3.00;;
3561;SDS011;1795;52.074;4.754;2023-02-19T11:01:52;9.30;;;2.65;;
3561;SDS011;1795;52.074;4.754;2023-02-19T11:04:23;9.65;;;2.70;;
3561;SDS011;1795;52.074;4.754;2023-02-19T11:06:52;8.40;;;3.30;;
3561;SDS011;1795;52.074;4.754;2023-02-19T11:09:22;10.50;;;3.80;;
3561;SDS011;1795;52.074;4.754;2023-02-19T11:11:53;10.57;;;2.80;;
3561;SDS011;1795;52.074;4.754;2023-02-19T11:14:23;6.07;;;2.50;;
3561;SDS011;1795;52.074;4.754;2023-02-19T11:16:53;11.40;;;2.65;;
3561;SDS011;1795;52.074;4.754;2023-02-19T11:19:25;11.05;;;2.90;;
3561;SDS011;1795;52.074;4.754;2023-02-19T11:21:57;14.35;;;3.13;;
3561;SDS011;1795;52.074;4.754;2023-02-19T11:24:28;7.07;;;2.40;;
3561;SDS011;1795;52.074;4.754;2023-02-19T11:26:59;7.63;;;2.50;;
3561;SDS011;1795;52.074;4.754;2023-02-19T11:29:30;10.60;;;3.78;;
3561;SDS011;1795;52.074;4.754;2023-02-19T11:34:49;6.70;;;3.40;;
3561;SDS011;1795;52.074;4.754;2023-02-19T11:37:18;7.65;;;2.60;;
3561;SDS011;1795;52.074;4.754;2023-02-19T11:39:47;6.27;;;2.87;;
3561;SDS011;1795;52.074;4.754;2023-02-19T11:42:23;7.47;;;3.20;;
3561;SDS011;1795;52.074;4.754;2023-02-19T11:47:57;7.13;;;2.75;;
3561;SDS011;1795;52.074;4.754;2023-02-19T11:50:54;10.27;;;3.20;;
3561;SDS011;1795;52.074;4.754;2023-02-19T11:53:32;5.28;;;2.83;;
3561;SDS011;1795;52.074;4.754;2023-02-19T11:56:08;8.93;;;3.05;;
3561;SDS011;1795;52.074;4.754;2023-02-19T11:58:48;10.00;;;2.95;;
3561;SDS011;1795;52.074;4.754;2023-02-19T12:01:37;6.80;;;2.60;;
3561;SDS011;1795;52.074;4.754;2023-02-19T12:04:25;6.55;;;2.40;;
3561;SDS011;1795;52.074;4.754;2023-02-19T12:07:13;7.43;;;3.10;;
3561;SDS011;1795;52.074;4.754;2023-02-19T12:09:52;8.90;;;2.70;;
3561;SDS011;1795;52.074;4.754;2023-02-19T12:12:32;9.30;;;3.20;;
3561;SDS011;1795;52.074;4.754;2023-02-19T12:15:19;4.47;;;2.72;;
3561;SDS011;1795;52.074;4.754;2023-02-19T12:18:12;6.78;;;3.53;;
3561;SDS011;1795;52.074;4.754;2023-02-19T12:21:04;8.20;;;3.53;;
3561;SDS011;1795;52.074;4.754;2023-02-19T12:23:50;7.75;;;3.80;;
3561;SDS011;1795;52.074;4.754;2023-02-19T12:26:29;7.65;;;2.60;;
3561;SDS011;1795;52.074;4.754;2023-02-19T12:29:03;5.22;;;2.78;;
3561;SDS011;1795;52.074;4.754;2023-02-19T12:31:46;4.13;;;2.80;;
3561;SDS011;1795;52.074;4.754;2023-02-19T12:34:38;6.05;;;3.10;;
3561;SDS011;1795;52.074;4.754;2023-02-19T12:37:32;6.55;;;3.17;;
3561;SDS011;1795;52.074;4.754;2023-02-19T12:40:16;4.65;;;3.28;;
3561;SDS011;1795;52.074;4.754;2023-02-19T12:42:57;4.40;;;4.00;;
3561;SDS011;1795;52.074;4.754;2023-02-19T12:45:34;5.82;;;4.78;;
3561;SDS011;1795;52.074;4.754;2023-02-19T12:48:08;6.10;;;5.50;;
3561;SDS011;1795;52.074;4.754;2023-02-19T12:50:43;7.10;;;5.10;;
3561;SDS011;1795;52.074;4.754;2023-02-19T12:53:18;6.15;;;5.53;;
3561;SDS011;1795;52.074;4.754;2023-02-19T12:55:55;6.05;;;5.45;;
3561;SDS011;1795;52.074;4.754;2023-02-19T12:58:27;6.05;;;5.03;;
3561;SDS011;1795;52.074;4.754;2023-02-19T13:00:58;6.00;;;5.40;;
3561;SDS011;1795;52.074;4.754;2023-02-19T13:03:27;5.18;;;4.70;;
3561;SDS011;1795;52.074;4.754;2023-02-19T13:06:01;7.70;;;5.30;;
3561;SDS011;1795;52.074;4.754;2023-02-19T13:08:37;5.30;;;4.88;;
3561;SDS011;1795;52.074;4.754;2023-02-19T13:11:31;6.20;;;5.20;;
3561;SDS011;1795;52.074;4.754;2023-02-19T13:14:04;5.40;;;4.78;;
3561;SDS011;1795;52.074;4.754;2023-02-19T13:16:40;4.65;;;4.25;;
3561;SDS011;1795;52.074;4.754;2023-02-19T13:19:13;4.60;;;4.20;;
3561;SDS011;1795;52.074;4.754;2023-02-19T13:21:41;4.70;;;4.25;;
3561;SDS011;1795;52.074;4.754;2023-02-19T13:24:32;5.40;;;4.70;;
3561;SDS011;1795;52.074;4.754;2023-02-19T13:27:07;5.45;;;4.95;;
3561;SDS011;1795;52.074;4.754;2023-02-19T13:29:53;6.90;;;4.63;;
3561;SDS011;1795;52.074;4.754;2023-02-19T13:32:41;5.90;;;4.70;;
3561;SDS011;1795;52.074;4.754;2023-02-19T13:35:22;5.13;;;4.68;;
3561;SDS011;1795;52.074;4.754;2023-02-19T13:37:53;5.03;;;4.63;;
3561;SDS011;1795;52.074;4.754;2023-02-19T13:40:28;5.28;;;4.78;;
3561;SDS011;1795;52.074;4.754;2023-02-19T13:43:00;4.22;;;3.72;;
3561;SDS011;1795;52.074;4.754;2023-02-19T13:45:31;4.22;;;3.60;;
3561;SDS011;1795;52.074;4.754;2023-02-19T13:48:12;6.57;;;3.80;;
3561;SDS011;1795;52.074;4.754;2023-02-19T13:50:41;5.10;;;3.53;;
3561;SDS011;1795;52.074;4.754;2023-02-19T13:56:36;3.93;;;3.50;;
3561;SDS011;1795;52.074;4.754;2023-02-19T13:59:18;4.50;;;4.10;;
3561;SDS011;1795;52.074;4.754;2023-02-19T14:05:04;6.57;;;4.15;;
3561;SDS011;1795;52.074;4.754;2023-02-19T14:25:21;4.82;;;4.43;;
3561;SDS011;1795;52.074;4.754;2023-02-19T14:27:56;4.20;;;3.90;;
3561;SDS011;1795;52.074;4.754;2023-02-19T14:30:29;3.78;;;3.35;;
3561;SDS011;1795;52.074;4.754;2023-02-19T14:33:01;3.43;;;3.13;;
3561;SDS011;1795;52.074;4.754;2023-02-19T14:35:37;3.50;;;3.20;;
3561;SDS011;1795;52.074;4.754;2023-02-19T14:38:08;3.58;;;3.20;;
3561;SDS011;1795;52.074;4.754;2023-02-19T14:40:43;3.63;;;3.25;;
3561;SDS011;1795;52.074;4.754;2023-02-19T14:43:14;3.30;;;3.10;;
3561;SDS011;1795;52.074;4.754;2023-02-19T14:45:46;3.78;;;3.47;;
3561;SDS011;1795;52.074;4.754;2023-02-19T14:48:19;3.90;;;3.70;;
3561;SDS011;1795;52.074;4.754;2023-02-19T14:50:51;4.05;;;3.72;;
3561;SDS011;1795;52.074;4.754;2023-02-19T14:53:23;4.47;;;3.75;;
3561;SDS011;1795;52.074;4.754;2023-02-19T14:55:52;3.58;;;3.28;;
3561;SDS011;1795;52.074;4.754;2023-02-19T14:58:23;6.43;;;3.10;;
3561;SDS011;1795;52.074;4.754;2023-02-19T15:00:54;3.50;;;2.80;;
3561;SDS011;1795;52.074;4.754;2023-02-19T15:03:25;2.75;;;2.45;;
3561;SDS011;1795;52.074;4.754;2023-02-19T15:05:57;2.50;;;2.30;;
3561;SDS011;1795;52.074;4.754;2023-02-19T15:08:33;2.50;;;2.30;;
3561;SDS011;1795;52.074;4.754;2023-02-19T15:11:06;2.70;;;2.50;;
3561;SDS011;1795;52.074;4.754;2023-02-19T15:13:38;4.97;;;3.00;;
3561;SDS011;1795;52.074;4.754;2023-02-19T15:16:14;2.95;;;2.75;;
3561;SDS011;1795;52.074;4.754;2023-02-19T15:18:45;2.40;;;2.20;;
3561;SDS011;1795;52.074;4.754;2023-02-19T15:21:18;2.35;;;2.15;;
3561;SDS011;1795;52.074;4.754;2023-02-19T15:23:50;2.75;;;2.53;;
3561;SDS011;1795;52.074;4.754;2023-02-19T15:26:21;3.00;;;2.80;;
3561;SDS011;1795;52.074;4.754;2023-02-19T15:28:58;3.70;;;3.40;;
3561;SDS011;1795;52.074;4.754;2023-02-19T15:31:27;3.97;;;3.08;;
3561;SDS011;1795;52.074;4.754;2023-02-19T15:33:57;2.72;;;2.63;;
3561;SDS011;1795;52.074;4.754;2023-02-19T15:36:26;3.45;;;3.10;;
3561;SDS011;1795;52.074;4.754;2023-02-19T15:38:56;3.10;;;3.00;;
3561;SDS011;1795;52.074;4.754;2023-02-19T15:41:28;3.10;;;2.80;;
3561;SDS011;1795;52.074;4.754;2023-02-19T15:44:03;2.67;;;2.47;;
3561;SDS011;1795;52.074;4.754;2023-02-19T15:46:44;2.60;;;2.40;;
3561;SDS011;1795;52.074;4.754;2023-02-19T15:49:15;2.10;;;2.00;;
3561;SDS011;1795;52.074;4.754;2023-02-19T15:51:49;1.83;;;1.73;;
3561;SDS011;1795;52.074;4.754;2023-02-19T15:54:23;1.65;;;1.50;;
3561;SDS011;1795;52.074;4.754;2023-02-19T15:56:57;1.30;;;1.20;;
3561;SDS011;1795;52.074;4.754;2023-02-19T15:59:30;1.98;;;1.88;;
3561;SDS011;1795;52.074;4.754;2023-02-19T16:02:02;2.10;;;2.00;;
3561;SDS011;1795;52.074;4.754;2023-02-19T16:04:32;3.70;;;1.70;;
3561;SDS011;1795;52.074;4.754;2023-02-19T16:07:01;1.40;;;1.30;;